Time;durP1;ratioP1;P1;durP2;ratioP2;P2;SDS_P1;SDS_P2;PMS_P1;PMS_P2;Temp;Humidity;BMP_temperature;BMP_pressure;BME280_temperature;BME280_humidity;BME280_pressure;Samples;Min_cycle;Max_cycle;Signal;HPM_P1;HPM_P2
2023/07/15 00:00:18;;;;;;;5.20;2.63;;;19.30;99.90;;;;;;5137408;27;20051;-46
2023/07/15 00:02:45;;;;;;;5.63;3.10;;;19.40;99.90;;;;;;5137573;27;20035;-46
2023/07/15 00:05:27;;;;;;;5.32;2.75;;;19.30;99.90;;;;;;5137380;27;20043;-46
2023/07/15 00:07:52;;;;;;;5.28;3.10;;;19.30;99.90;;;;;;5119415;27;20104;-47
2023/07/15 00:10:21;;;;;;;5.53;2.80;;;19.30;99.90;;;;;;5137322;27;20073;-46
2023/07/15 00:12:47;;;;;;;5.57;2.97;;;19.30;99.90;;;;;;5137250;27;20043;-46
2023/07/15 00:15:14;;;;;;;5.78;3.00;;;19.20;99.90;;;;;;5119221;27;20043;-46
2023/07/15 00:17:40;;;;;;;5.28;2.80;;;19.20;99.90;;;;;;5137221;27;20095;-46
2023/07/15 00:20:14;;;;;;;5.40;2.80;;;19.20;99.90;;;;;;5136291;27;20045;-46
2023/07/15 00:22:41;;;;;;;4.55;2.35;;;19.20;99.90;;;;;;5137046;27;20039;-46
2023/07/15 00:25:15;;;;;;;5.05;2.63;;;19.20;99.90;;;;;;5136771;27;20050;-47
2023/07/15 00:27:44;;;;;;;6.45;2.60;;;19.20;99.90;;;;;;5137270;27;20436;-46
2023/07/15 00:30:19;;;;;;;4.78;2.60;;;19.20;99.90;;;;;;5136933;27;20047;-46
2023/07/15 00:32:47;;;;;;;5.45;2.47;;;19.20;99.90;;;;;;5136842;27;20122;-46
2023/07/15 00:35:31;;;;;;;5.65;2.67;;;19.20;99.90;;;;;;5136784;27;20047;-46
2023/07/15 00:37:58;;;;;;;6.32;2.60;;;19.10;99.90;;;;;;5118838;27;20125;-46
2023/07/15 00:40:25;;;;;;;5.30;2.97;;;19.10;99.90;;;;;;5136806;27;20104;-46
2023/07/15 00:43:10;;;;;;;5.28;2.38;;;19.10;99.90;;;;;;5137026;27;20384;-46
2023/07/15 00:45:35;;;;;;;5.03;2.25;;;19.10;99.90;;;;;;5136742;27;20047;-46
2023/07/15 00:48:16;;;;;;;4.63;2.38;;;19.00;99.90;;;;;;5136460;27;20088;-46
2023/07/15 00:50:42;;;;;;;6.55;2.83;;;19.00;99.90;;;;;;5136846;27;20483;-47
2023/07/15 00:53:11;;;;;;;;;;;19.00;99.90;;;;;;5136924;27;20047;-46
2023/07/15 00:55:37;;;;;;;5.10;2.60;;;18.90;99.90;;;;;;5136385;27;19961;-46
2023/07/15 00:58:03;;;;;;;4.35;2.17;;;19.00;99.90;;;;;;5136390;27;20414;-46
2023/07/15 01:00:30;;;;;;;4.50;2.08;;;18.90;99.90;;;;;;5136419;27;20127;-46
2023/07/15 01:02:56;;;;;;;6.85;2.20;;;18.90;99.90;;;;;;5136387;27;20043;-46
2023/07/15 01:05:21;;;;;;;4.70;1.63;;;18.90;99.90;;;;;;5136639;27;20065;-47
2023/07/15 01:07:47;;;;;;;5.40;1.90;;;18.90;99.90;;;;;;5117726;27;20043;-46
2023/07/15 01:10:13;;;;;;;5.43;2.08;;;18.90;99.90;;;;;;5135842;27;20059;-46
2023/07/15 01:12:39;;;;;;;4.47;2.03;;;18.90;99.90;;;;;;5136216;27;20039;-46
2023/07/15 01:15:06;;;;;;;4.60;1.90;;;18.90;99.90;;;;;;5136116;27;20043;-46
2023/07/15 01:17:32;;;;;;;5.18;2.10;;;19.00;99.90;;;;;;5136048;27;20404;-46
2023/07/15 01:19:58;;;;;;;4.60;1.80;;;19.00;99.90;;;;;;5136095;27;20047;-45
2023/07/15 01:22:25;;;;;;;4.80;1.70;;;19.00;99.90;;;;;;5136002;27;20057;-46
2023/07/15 01:24:51;;;;;;;5.22;1.38;;;19.00;99.90;;;;;;5136111;27;20404;-46
2023/07/15 01:27:17;;;;;;;4.55;1.77;;;19.10;99.90;;;;;;5135889;27;20039;-45
2023/07/15 01:29:43;;;;;;;3.67;1.60;;;19.10;99.90;;;;;;5135832;27;20441;-46
2023/07/15 01:32:09;;;;;;;4.53;1.65;;;19.10;99.90;;;;;;5134412;27;20047;-46
2023/07/15 01:34:36;;;;;;;5.50;1.63;;;19.10;99.90;;;;;;5135841;27;20118;-46
2023/07/15 01:37:02;;;;;;;4.10;1.83;;;19.10;99.90;;;;;;5135549;27;20055;-46
2023/07/15 01:39:28;;;;;;;;;;;19.20;99.90;;;;;;5117816;27;20090;-46
2023/07/15 01:41:55;;;;;;;4.70;1.90;;;19.20;99.90;;;;;;5135602;27;19972;-46
2023/07/15 01:44:23;;;;;;;6.47;2.17;;;19.20;99.90;;;;;;5135591;27;20062;-47
2023/07/15 01:46:49;;;;;;;4.38;1.67;;;19.20;99.90;;;;;;5135494;27;20051;-46
2023/07/15 01:49:14;;;;;;;4.07;1.95;;;19.20;99.90;;;;;;5117496;27;20509;-47
2023/07/15 01:51:40;;;;;;;5.63;2.13;;;19.20;99.90;;;;;;5117731;27;20039;-47
2023/07/15 01:54:06;;;;;;;8.80;2.00;;;19.30;99.90;;;;;;5135191;27;20104;-46
2023/07/15 01:56:31;;;;;;;4.22;1.70;;;19.30;99.90;;;;;;5135306;27;20046;-47
2023/07/15 01:58:57;;;;;;;6.43;1.83;;;19.30;99.90;;;;;;5135107;27;20122;-46
2023/07/15 02:01:23;;;;;;;6.60;1.70;;;19.30;99.90;;;;;;5135226;27;20058;-46
2023/07/15 02:03:49;;;;;;;4.13;1.90;;;19.30;99.90;;;;;;5135233;27;20436;-46
2023/07/15 02:06:14;;;;;;;5.55;1.73;;;19.30;99.90;;;;;;5135111;27;20480;-45
2023/07/15 02:08:40;;;;;;;5.40;1.75;;;19.30;99.90;;;;;;5116757;27;20096;-46
2023/07/15 02:11:06;;;;;;;4.13;1.75;;;19.30;99.90;;;;;;5134979;27;20059;-46
2023/07/15 02:13:31;;;;;;;3.85;1.70;;;19.30;99.90;;;;;;5134900;27;20123;-47
2023/07/15 02:15:57;;;;;;;4.18;1.88;;;19.40;99.90;;;;;;5135005;27;20047;-46
2023/07/15 02:18:24;;;;;;;3.20;1.50;;;19.40;99.90;;;;;;5135196;27;20054;-46
2023/07/15 02:20:50;;;;;;;3.75;1.50;;;19.40;99.90;;;;;;5134966;27;20476;-46
2023/07/15 02:23:16;;;;;;;4.65;2.15;;;19.40;99.90;;;;;;5134880;27;20125;-46
2023/07/15 02:25:42;;;;;;;4.88;2.00;;;19.40;99.90;;;;;;5134782;27;20047;-46
2023/07/15 02:28:08;;;;;;;3.50;1.63;;;19.40;99.90;;;;;;5116386;27;20142;-46
2023/07/15 02:30:34;;;;;;;3.42;1.65;;;19.40;99.90;;;;;;5116701;27;20105;-46
2023/07/15 02:33:01;;;;;;;3.70;1.35;;;19.40;99.90;;;;;;5134451;27;20501;-47
2023/07/15 02:35:27;;;;;;;;;;;19.40;99.90;;;;;;5135186;27;20055;-46
2023/07/15 02:37:54;;;;;;;3.55;1.50;;;19.40;99.90;;;;;;5134806;27;19919;-46
2023/07/15 02:40:21;;;;;;;4.13;1.85;;;19.40;99.90;;;;;;5134469;27;20051;-46
2023/07/15 02:42:46;;;;;;;;;;;19.40;99.90;;;;;;5134394;27;20099;-46
2023/07/15 02:45:15;;;;;;;3.72;1.55;;;19.40;99.90;;;;;;5116405;27;20018;-45
2023/07/15 02:47:41;;;;;;;4.03;1.60;;;19.40;99.90;;;;;;5134525;27;20471;-47
2023/07/15 02:50:08;;;;;;;5.38;2.55;;;19.40;99.90;;;;;;5134516;28;20050;-46
2023/07/15 02:52:35;;;;;;;4.80;1.70;;;19.40;99.90;;;;;;5134453;28;20046;-47
2023/07/15 02:55:02;;;;;;;2.67;1.30;;;19.40;99.90;;;;;;5134478;28;20506;-46
2023/07/15 02:57:29;;;;;;;4.72;1.30;;;19.30;99.90;;;;;;5134218;28;20511;-46
2023/07/15 02:59:55;;;;;;;3.15;1.45;;;19.40;99.90;;;;;;5134516;28;20043;-45
2023/07/15 03:02:22;;;;;;;4.93;1.80;;;19.30;99.90;;;;;;5134403;28;20047;-47
2023/07/15 03:04:49;;;;;;;3.17;1.60;;;19.30;99.90;;;;;;5134714;28;20055;-45
2023/07/15 03:07:16;;;;;;;4.75;1.52;;;19.30;99.90;;;;;;5134441;28;20043;-46
2023/07/15 03:09:42;;;;;;;3.90;1.55;;;19.30;99.90;;;;;;5134042;27;20051;-47
2023/07/15 03:12:08;;;;;;;;;;;19.30;99.90;;;;;;5134381;28;20051;-47
2023/07/15 03:14:34;;;;;;;3.05;1.40;;;19.30;99.90;;;;;;5134267;28;19919;-47
2023/07/15 03:17:00;;;;;;;2.80;1.50;;;19.20;99.90;;;;;;5134688;28;20043;-46
2023/07/15 03:19:26;;;;;;;4.13;1.50;;;19.20;99.90;;;;;;5134597;28;20039;-45
2023/07/15 03:21:52;;;;;;;4.93;1.58;;;19.20;99.90;;;;;;5134136;28;20491;-46
2023/07/15 03:24:18;;;;;;;3.58;1.60;;;19.20;99.90;;;;;;5134053;28;20092;-46
2023/07/15 03:26:44;;;;;;;3.40;1.27;;;19.20;99.90;;;;;;5133950;28;20096;-47
2023/07/15 03:29:10;;;;;;;4.07;1.42;;;19.20;99.90;;;;;;5116155;28;20149;-46
2023/07/15 03:31:36;;;;;;;3.13;1.35;;;19.20;99.90;;;;;;5134298;28;20476;-45
2023/07/15 03:34:02;;;;;;;3.80;1.30;;;19.20;99.90;;;;;;5134079;28;20078;-46
2023/07/15 03:36:28;;;;;;;3.33;1.10;;;19.20;99.90;;;;;;5133953;28;20046;-46
2023/07/15 03:38:54;;;;;;;2.85;1.33;;;19.30;99.90;;;;;;5134088;28;20054;-46
2023/07/15 03:41:19;;;;;;;2.25;0.95;;;19.20;99.90;;;;;;5133781;28;20043;-47
2023/07/15 03:43:45;;;;;;;3.47;1.25;;;19.30;99.90;;;;;;5134057;28;20181;-45
2023/07/15 03:46:12;;;;;;;2.63;1.17;;;19.30;99.90;;;;;;5134262;28;20180;-46
2023/07/15 03:48:38;;;;;;;2.85;1.45;;;19.30;99.90;;;;;;5133847;28;20602;-47
2023/07/15 03:51:06;;;;;;;4.93;1.67;;;19.30;99.90;;;;;;5134076;28;20049;-46
2023/07/15 03:53:32;;;;;;;3.35;1.40;;;19.40;99.90;;;;;;5133804;27;20035;-45
2023/07/15 03:55:58;;;;;;;3.72;1.55;;;19.40;99.90;;;;;;5137215;27;20055;-46
2023/07/15 03:58:24;;;;;;;2.72;1.20;;;19.40;99.90;;;;;;5137573;27;20147;-46
2023/07/15 04:00:50;;;;;;;3.95;1.30;;;19.40;99.90;;;;;;5137889;27;20090;-47
2023/07/15 04:03:16;;;;;;;5.05;1.40;;;19.30;99.90;;;;;;5137796;27;20039;-46
2023/07/15 04:05:41;;;;;;;4.97;1.60;;;19.40;99.90;;;;;;5137477;27;20045;-46
2023/07/15 04:08:07;;;;;;;2.70;1.15;;;19.40;99.90;;;;;;5137393;27;20082;-46
2023/07/15 04:10:33;;;;;;;3.40;1.15;;;19.40;99.90;;;;;;5137081;27;20522;-46
2023/07/15 04:12:58;;;;;;;2.65;1.20;;;19.40;99.90;;;;;;5119551;27;20039;-46
2023/07/15 04:15:24;;;;;;;5.97;1.67;;;19.40;99.90;;;;;;5137260;27;20085;-46
2023/07/15 04:17:50;;;;;;;3.20;1.38;;;19.40;99.90;;;;;;5137274;27;20078;-46
2023/07/15 04:20:17;;;;;;;5.35;1.33;;;19.40;99.90;;;;;;5137288;27;20084;-46
2023/07/15 04:22:43;;;;;;;3.10;1.30;;;19.40;99.90;;;;;;5118956;27;20059;-46
2023/07/15 04:25:10;;;;;;;;;;;19.50;99.90;;;;;;5137488;27;20060;-46
2023/07/15 04:27:37;;;;;;;;;;;19.50;99.90;;;;;;5137606;27;19966;-46
2023/07/15 04:30:03;;;;;;;;;;;19.50;99.90;;;;;;5137555;27;20005;-45
2023/07/15 04:32:28;;;;;;;;;;;19.50;99.90;;;;;;5137632;27;20356;-46
2023/07/15 04:34:54;;;;;;;;;;;19.50;99.90;;;;;;5137388;27;19920;-46
2023/07/15 04:37:20;;;;;;;;;;;19.50;99.90;;;;;;5137168;27;19926;-46
2023/07/15 04:39:45;;;;;;;;;;;19.60;99.90;;;;;;5137134;27;20376;-47
2023/07/15 04:42:11;;;;;;;;;;;19.50;99.90;;;;;;5137242;27;19972;-46
2023/07/15 04:44:36;;;;;;;;;;;19.60;99.90;;;;;;5137461;27;19923;-46
2023/07/15 04:47:02;;;;;;;;;;;19.60;99.90;;;;;;5119035;27;19942;-46
2023/07/15 04:49:28;;;;;;;;;;;19.60;99.90;;;;;;5137271;27;20399;-47
2023/07/15 04:51:54;;;;;;;;;;;19.70;99.90;;;;;;5137003;27;19919;-46
2023/07/15 04:54:19;;;;;;;;;;;19.70;99.90;;;;;;5136782;27;19928;-46
2023/07/15 04:56:45;;;;;;;;;;;19.70;99.90;;;;;;5136976;27;19927;-45
2023/07/15 04:59:11;;;;;;;;;;;19.80;99.90;;;;;;5136625;27;19919;-46
2023/07/15 05:01:36;;;;;;;;;;;19.80;99.90;;;;;;5136750;27;19919;-46
2023/07/15 05:04:02;;;;;;;;;;;19.80;99.90;;;;;;5136674;27;19919;-46
2023/07/15 05:06:28;;;;;;;;;;;19.90;99.90;;;;;;5136491;27;19984;-46
2023/07/15 05:08:54;;;;;;;;;;;19.90;99.90;;;;;;5136363;27;20015;-47
2023/07/15 05:11:20;;;;;;;;;;;19.90;99.90;;;;;;5137008;27;20009;-46
2023/07/15 05:13:46;;;;;;;;;;;19.90;99.90;;;;;;5136463;27;19967;-46
2023/07/15 05:16:15;;;;;;;;;;;20.00;99.90;;;;;;5136544;27;19919;-47
2023/07/15 05:18:40;;;;;;;;;;;20.00;99.90;;;;;;5136557;27;20358;-46
2023/07/15 05:21:06;;;;;;;;;;;20.00;99.90;;;;;;5136447;27;19967;-47
2023/07/15 05:23:32;;;;;;;;;;;20.10;99.90;;;;;;5136370;27;19926;-48
2023/07/15 05:25:59;;;;;;;;;;;20.20;99.90;;;;;;5136321;27;19970;-46
2023/07/15 05:28:29;;;;;;;;;;;20.20;99.90;;;;;;5136256;27;19919;-46
2023/07/15 05:30:56;;;;;;;;;;;20.20;99.90;;;;;;5136358;27;20018;-46
2023/07/15 05:33:21;;;;;;;;;;;20.30;99.90;;;;;;5136243;27;19981;-46
2023/07/15 05:35:47;;;;;;;;;;;20.40;99.90;;;;;;5117719;27;20372;-46
2023/07/15 05:38:13;;;;;;;;;;;20.50;99.90;;;;;;5135958;27;19974;-46
2023/07/15 05:40:40;;;;;;;;;;;20.60;99.90;;;;;;5136171;27;19919;-47
2023/07/15 05:43:05;;;;;;;;;;;20.70;99.90;;;;;;5136074;27;19919;-46
2023/07/15 05:45:31;;;;;;;;;;;20.80;99.90;;;;;;5135843;27;19919;-46
2023/07/15 05:47:56;;;;;;;;;;;20.80;99.90;;;;;;5135961;27;20052;-45
2023/07/15 05:50:22;;;;;;;;;;;20.90;99.90;;;;;;5135903;27;19926;-47
2023/07/15 05:52:47;;;;;;;;;;;21.00;99.90;;;;;;5135622;27;19923;-46
2023/07/15 05:55:13;;;;;;;;;;;21.20;99.90;;;;;;5135801;27;19927;-46
2023/07/15 05:57:39;;;;;;;;;;;21.20;99.90;;;;;;5135841;27;19927;-46
2023/07/15 06:00:07;;;;;;;;;;;21.30;99.90;;;;;;5135679;27;20013;-46
2023/07/15 06:02:33;;;;;;;;;;;21.40;99.90;;;;;;5135786;27;19920;-45
2023/07/15 06:04:59;;;;;;;;;;;21.40;99.90;;;;;;5135640;27;19952;-46
2023/07/15 06:07:24;;;;;;;;;;;21.50;99.90;;;;;;5135522;27;20401;-46
2023/07/15 06:09:51;;;;;;;;;;;21.50;99.90;;;;;;5135444;27;20291;-45
2023/07/15 06:12:17;;;;;;;;;;;21.50;99.90;;;;;;5116997;27;20322;-46
2023/07/15 06:14:42;;;;;;;;;;;21.60;99.90;;;;;;5135483;27;19919;-46
2023/07/15 06:17:08;;;;;;;;;;;21.60;99.90;;;;;;5099752;28;19930;-45
2023/07/15 06:19:33;;;;;;;;;;;21.70;99.90;;;;;;5117032;27;19927;-46
2023/07/15 06:21:59;;;;;;;;;;;21.80;99.90;;;;;;5135382;27;19976;-46
2023/07/15 06:24:25;;;;;;;;;;;21.80;99.90;;;;;;5135353;27;19968;-46
2023/07/15 06:26:50;;;;;;;;;;;21.90;99.90;;;;;;5135375;27;19927;-46
2023/07/15 06:29:16;;;;;;;;;;;21.90;99.90;;;;;;5135178;27;19919;-46
2023/07/15 06:31:41;;;;;;;;;;;22.00;99.90;;;;;;5135286;27;19966;-47
2023/07/15 06:34:07;;;;;;;;;;;22.00;99.90;;;;;;5135149;27;19965;-46
2023/07/15 06:36:32;;;;;;;;;;;22.10;99.90;;;;;;5134796;27;20288;-46
2023/07/15 06:38:58;;;;;;;;;;;22.10;99.90;;;;;;5135122;27;19923;-46
2023/07/15 06:41:23;;;;;;;;;;;22.10;99.90;;;;;;5135002;27;19919;-46
2023/07/15 06:43:49;;;;;;;;;;;22.00;99.90;;;;;;5135063;27;20010;-47
2023/07/15 06:46:14;;;;;;;;;;;22.00;99.90;;;;;;5116717;27;19926;-46
2023/07/15 06:48:40;;;;;;;;;;;22.00;99.90;;;;;;5116819;28;19923;-47
2023/07/15 06:51:06;;;;;;;;;;;22.00;99.90;;;;;;5134686;28;20034;-50
2023/07/15 06:53:31;;;;;;;;;;;22.00;99.90;;;;;;5134917;28;19923;-47
2023/07/15 06:55:57;;;;;;;;;;;22.10;99.90;;;;;;5134880;28;19923;-48
2023/07/15 06:58:22;;;;;;;;;;;22.10;99.90;;;;;;5117182;28;20017;-48
2023/07/15 07:00:48;;;;;;;;;;;22.20;99.90;;;;;;5134946;28;19919;-48
2023/07/15 07:03:14;;;;;;;;;;;22.30;99.90;;;;;;5134745;28;20374;-46
2023/07/15 07:05:39;;;;;;;;;;;22.40;99.90;;;;;;5134650;28;20390;-46
2023/07/15 07:08:05;;;;;;;;;;;22.50;99.90;;;;;;5134840;28;19926;-46
2023/07/15 07:10:30;;;;;;;;;;;22.60;99.90;;;;;;5134887;27;19968;-47
2023/07/15 07:12:56;;;;;;;;;;;22.60;99.90;;;;;;5134703;28;20344;-47
2023/07/15 07:15:21;;;;;;;;;;;22.70;99.90;;;;;;5116484;28;19919;-49
2023/07/15 07:17:47;;;;;;;;;;;22.80;99.90;;;;;;5134534;28;19927;-46
2023/07/15 07:20:12;;;;;;;;;;;22.90;99.90;;;;;;5134624;28;19919;-48
2023/07/15 07:22:38;;;;;;;;;;;22.90;99.90;;;;;;5116633;28;19924;-48
2023/07/15 07:25:04;;;;;;;;;;;22.90;99.90;;;;;;5134639;28;19972;-46
2023/07/15 07:27:30;;;;;;;;;;;23.00;99.90;;;;;;5134704;28;19919;-46
2023/07/15 07:29:59;;;;;;;;;;;23.00;99.90;;;;;;5138150;27;19945;-46
2023/07/15 07:32:25;;;;;;;;;;;23.10;99.90;;;;;;5138313;27;20439;-46
2023/07/15 07:34:50;;;;;;;;;;;23.10;99.90;;;;;;5120280;27;19973;-47
2023/07/15 07:37:16;;;;;;;;;;;23.20;99.90;;;;;;5138284;27;19923;-46
2023/07/15 07:39:41;;;;;;;;;;;23.50;99.90;;;;;;5103477;27;19926;-46
2023/07/15 07:42:08;;;;;;;;;;;23.60;99.90;;;;;;5138226;27;19930;-46
2023/07/15 07:44:34;;;;;;;;;;;23.70;99.90;;;;;;5138358;27;19919;-46
2023/07/15 07:47:00;;;;;;;;;;;23.70;99.90;;;;;;5138221;27;20032;-46
2023/07/15 07:49:25;;;;;;;;;;;23.60;99.90;;;;;;5138134;27;20034;-46
2023/07/15 07:51:51;;;;;;;;;;;23.50;99.90;;;;;;5138160;27;19933;-46
2023/07/15 07:54:16;;;;;;;;;;;23.50;99.90;;;;;;5120539;27;19919;-46
2023/07/15 07:56:42;;;;;;;;;;;23.50;99.90;;;;;;5138387;27;19949;-46
2023/07/15 07:59:07;;;;;;;;;;;23.50;99.90;;;;;;5137909;27;19961;-46
2023/07/15 08:01:33;;;;;;;;;;;23.50;99.90;;;;;;5138056;27;19920;-46
2023/07/15 08:03:59;;;;;;;;;;;23.60;99.90;;;;;;5119927;27;19919;-47
2023/07/15 08:06:25;;;;;;;;;;;23.50;99.90;;;;;;5137992;27;19919;-47
2023/07/15 08:08:51;;;;;;;;;;;23.50;99.90;;;;;;5137717;27;20383;-46
2023/07/15 08:11:16;;;;;;;;;;;23.50;99.90;;;;;;5137910;27;20294;-47
2023/07/15 08:13:42;;;;;;;;;;;23.50;99.90;;;;;;5119356;27;19920;-46
2023/07/15 08:16:26;;;;;;;;;;;23.50;99.90;;;;;;5137747;27;19923;-46
2023/07/15 08:18:52;;;;;;;;;;;23.50;99.90;;;;;;5137494;27;20396;-47
2023/07/15 08:21:17;;;;;;;;;;;23.40;99.90;;;;;;5138220;27;20031;-46
2023/07/15 08:23:43;;;;;;;;;;;23.40;99.90;;;;;;5137612;27;20342;-46
2023/07/15 08:26:08;;;;;;;;;;;23.30;99.90;;;;;;5137665;27;19919;-46
2023/07/15 08:28:34;;;;;;;;;;;23.20;99.90;;;;;;5137541;27;19919;-46
2023/07/15 08:30:59;;;;;;;;;;;23.20;99.90;;;;;;5119158;27;19919;-46
2023/07/15 08:33:25;;;;;;;;;;;23.20;99.90;;;;;;5137569;27;19926;-46
2023/07/15 08:35:51;;;;;;;;;;;23.20;99.90;;;;;;5137393;27;19926;-47
2023/07/15 08:38:16;;;;;;;;;;;23.20;99.90;;;;;;5137297;27;20333;-46
2023/07/15 08:40:43;;;;;;;;;;;23.20;99.90;;;;;;5118397;27;19924;-47
2023/07/15 08:43:09;;;;;;;;;;;23.30;99.90;;;;;;5137089;27;19926;-47
2023/07/15 08:45:35;;;;;;;;;;;23.40;99.90;;;;;;5118933;27;20331;-47
2023/07/15 08:48:01;;;;;;;;;;;23.40;99.90;;;;;;5136942;27;19923;-46
2023/07/15 08:50:28;;;;;;;;;;;23.50;99.90;;;;;;5137396;27;20010;-46
2023/07/15 08:52:54;;;;;;;;;;;23.50;99.90;;;;;;5136913;27;19919;-46
2023/07/15 08:55:20;;;;;;;;;;;23.60;99.90;;;;;;5136932;27;19919;-46
2023/07/15 08:57:47;;;;;;;;;;;23.60;99.90;;;;;;5118570;27;19942;-47
2023/07/15 09:00:15;;;;;;;;;;;23.60;99.90;;;;;;5136701;27;20299;-46
2023/07/15 09:02:40;;;;;;;;;;;23.60;99.90;;;;;;5136890;27;19919;-47
2023/07/15 09:05:07;;;;;;;;;;;23.70;99.90;;;;;;5136778;27;20272;-49
2023/07/15 09:07:42;;;;;;;;;;;23.70;99.90;;;;;;5136792;27;19920;-47
2023/07/15 09:10:11;;;;;;;;;;;23.80;99.90;;;;;;5136738;27;19959;-46
2023/07/15 09:12:36;;;;;;;;;;;23.80;99.90;;;;;;5118429;27;19926;-46
2023/07/15 09:15:05;;;;;;;;;;;23.90;99.90;;;;;;5136378;27;19920;-47
2023/07/15 09:17:31;;;;;;;;;;;23.90;99.90;;;;;;5136544;27;19925;-46
2023/07/15 09:19:56;;;;;;;;;;;23.90;99.90;;;;;;5136518;27;20006;-46
2023/07/15 09:22:24;;;;;;;;;;;24.00;99.90;;;;;;5136449;27;19920;-47
2023/07/15 09:24:49;;;;;;;;;;;24.00;99.90;;;;;;5136336;27;19919;-47
2023/07/15 09:27:15;;;;;;;;;;;24.00;99.90;;;;;;5136240;27;19943;-47
2023/07/15 09:29:40;;;;;;;;;;;24.00;99.90;;;;;;5136222;27;19919;-47
2023/07/15 09:32:07;;;;;;;;;;;23.90;99.90;;;;;;5136178;27;19926;-47
2023/07/15 09:34:38;;;;;;;;;;;23.90;99.90;;;;;;5136668;27;19923;-47
2023/07/15 09:37:03;;;;;;;;;;;23.80;99.90;;;;;;5136306;27;19919;-46
2023/07/15 09:39:29;;;;;;;;;;;23.80;99.90;;;;;;5135999;27;20294;-48
2023/07/15 09:42:02;;;;;;;;;;;23.70;99.90;;;;;;5135890;27;20459;-47
2023/07/15 09:44:35;;;;;;;;;;;23.70;99.90;;;;;;5136062;27;19966;-48
2023/07/15 09:47:04;;;;;;;;;;;23.70;99.90;;;;;;5136078;27;19926;-47
2023/07/15 09:49:30;;;;;;;;;;;23.70;99.90;;;;;;5135991;27;19971;-47
2023/07/15 09:51:56;;;;;;;;;;;23.70;99.90;;;;;;5134912;27;19919;-47
2023/07/15 09:54:23;;;;;;;;;;;23.70;99.90;;;;;;5135857;27;19926;-47
2023/07/15 09:56:49;;;;;;;;;;;23.70;99.90;;;;;;5135586;27;20005;-48
2023/07/15 09:59:17;;;;;;;;;;;23.70;99.90;;;;;;5135695;27;19919;-47
2023/07/15 10:01:47;;;;;;;;;;;23.80;99.90;;;;;;5135689;27;19934;-47
2023/07/15 10:04:16;;;;;;;;;;;23.80;99.90;;;;;;5117552;27;19919;-46
2023/07/15 10:06:42;;;;;;;;;;;23.90;99.90;;;;;;5135584;27;19958;-48
2023/07/15 10:09:08;;;;;;;;;;;23.90;99.90;;;;;;5135280;27;19919;-47
2023/07/15 10:11:35;;;;;;;;;;;23.90;99.90;;;;;;5135647;27;19923;-48
2023/07/15 10:14:00;;;;;;;;;;;24.00;99.90;;;;;;5135523;27;19919;-48
2023/07/15 10:16:26;;;;;;;;;;;24.00;99.90;;;;;;5135502;27;19926;-49
2023/07/15 10:18:54;;;;;;;;;;;24.10;99.90;;;;;;5135494;27;19919;-48
2023/07/15 10:21:19;;;;;;;;;;;24.20;99.90;;;;;;5135363;27;19923;-47
2023/07/15 10:23:45;;;;;;;;;;;24.30;99.90;;;;;;5135055;27;20325;-46
2023/07/15 10:26:10;;;;;;;;;;;24.40;99.90;;;;;;5135139;27;20010;-47
2023/07/15 10:28:39;;;;;;;;;;;24.60;99.90;;;;;;5117805;27;19942;-50
2023/07/15 10:31:12;;;;;;;;;;;24.60;99.90;;;;;;5135256;27;20279;-47
2023/07/15 10:33:57;;;;;;;;;;;24.70;99.90;;;;;;5135017;27;19923;-48
2023/07/15 10:36:34;;;;;;;;;;;24.70;99.90;;;;;;5135058;27;19919;-47
2023/07/15 10:39:09;;;;;;;;;;;24.70;99.90;;;;;;5135128;27;19919;-47
2023/07/15 10:41:48;;;;;;;;;;;24.70;99.90;;;;;;5117268;28;19919;-47
2023/07/15 10:44:23;;;;;;;;;;;24.70;99.90;;;;;;5134961;27;19969;-47
2023/07/15 10:46:52;;;;;;;;;;;24.70;99.90;;;;;;5134981;27;19919;-47
2023/07/15 10:49:18;;;;;;;;;;;24.70;99.90;;;;;;5135417;27;19923;-46
2023/07/15 10:51:44;;;;;;;;;;;24.60;99.90;;;;;;5135039;28;19920;-47
2023/07/15 10:54:10;;;;;;;;;;;24.60;99.90;;;;;;5134832;28;19920;-47
2023/07/15 10:56:36;;;;;;;;;;;24.60;99.90;;;;;;5134807;28;20281;-47
2023/07/15 10:59:01;;;;;;;;;;;24.70;99.90;;;;;;5135063;28;19919;-47
2023/07/15 11:01:27;;;;;;;;;;;24.90;99.90;;;;;;5134866;28;20339;-47
2023/07/15 11:03:53;;;;;;;;;;;25.00;99.90;;;;;;5118927;27;19926;-49
2023/07/15 11:06:19;;;;;;;;;;;25.10;99.90;;;;;;5121147;27;20371;-47
2023/07/15 11:08:44;;;;;;;;;;;25.20;99.90;;;;;;5121022;27;19926;-48
2023/07/15 11:11:11;;;;;;;;;;;25.30;99.90;;;;;;5120385;27;19920;-47
2023/07/15 11:13:37;;;;;;;;;;;25.60;99.90;;;;;;5138918;27;20022;-48
2023/07/15 11:16:03;;;;;;;;;;;25.70;99.90;;;;;;5138880;27;20017;-47
2023/07/15 11:18:28;;;;;;;;;;;25.70;99.90;;;;;;5139060;27;19974;-47
2023/07/15 11:20:56;;;;;;;;;;;25.80;99.90;;;;;;5120793;27;19920;-47
2023/07/15 11:23:22;;;;;;;;;;;25.90;99.90;;;;;;5138746;27;19919;-49
2023/07/15 11:25:47;;;;;;;;;;;26.10;99.90;;;;;;5138642;27;20394;-47
2023/07/15 11:28:13;;;;;;;;;;;26.20;99.90;;;;;;5138570;27;19923;-47
2023/07/15 11:30:40;;;;;;;;;;;26.30;99.90;;;;;;5138422;27;19919;-47
2023/07/15 11:33:06;;;;;;;;;;;26.40;99.90;;;;;;5138627;27;19973;-48
2023/07/15 11:35:33;;;;;;;;;;;26.50;99.90;;;;;;5138563;27;20287;-47
2023/07/15 11:38:19;;;;;;;;;;;26.40;99.90;;;;;;5120754;27;20015;-48
2023/07/15 11:40:58;;;;;;;;;;;26.30;99.90;;;;;;5137896;27;19919;-47
2023/07/15 11:43:25;;;;;;;;;;;26.20;99.90;;;;;;5138392;27;19919;-47
2023/07/15 11:45:54;;;;;;;;;;;26.10;99.90;;;;;;5138389;27;19919;-53
2023/07/15 11:48:23;;;;;;;;;;;26.10;99.90;;;;;;5138408;27;19966;-49
2023/07/15 11:50:49;;;;;;;;;;;26.10;99.90;;;;;;5138247;27;19926;-49
2023/07/15 11:53:41;;;;;;;;;;;26.00;99.90;;;;;;5138039;27;19919;-47
2023/07/15 11:56:07;;;;;;;;;;;25.90;99.90;;;;;;5132887;27;19919;-48
2023/07/15 11:58:36;;;;;;;;;;;25.80;99.90;;;;;;5138122;27;20023;-48
2023/07/15 12:01:03;;;;;;;;;;;25.70;99.90;;;;;;5120041;27;19919;-49
2023/07/15 12:03:29;;;;;;;;;;;25.60;99.90;;;;;;5137884;27;20371;-47
2023/07/15 12:05:54;;;;;;;;;;;25.60;99.90;;;;;;5137985;27;19920;-48
2023/07/15 12:08:20;;;;;;;;;;;25.60;99.90;;;;;;5137673;27;19919;-47
2023/07/15 12:10:50;;;;;;;;;;;25.60;99.90;;;;;;5138061;27;19942;-47
2023/07/15 12:13:15;;;;;;;;;;;25.60;99.90;;;;;;5137725;27;20295;-48
2023/07/15 12:15:41;;;;;;;;;;;25.60;99.90;;;;;;5136719;27;19919;-47
2023/07/15 12:18:06;;;;;;;;;;;25.80;99.90;;;;;;5137498;27;19926;-54
2023/07/15 12:20:32;;;;;;;;;;;25.80;99.90;;;;;;5137541;27;19925;-47
2023/07/15 12:22:58;;;;;;;;;;;25.90;99.90;;;;;;5137547;27;19976;-47
2023/07/15 12:25:24;;;;;;;;;;;25.90;99.90;;;;;;5137590;27;19938;-48
2023/07/15 12:27:49;;;;;;;;;;;25.90;99.90;;;;;;5137610;27;19964;-48
2023/07/15 12:30:15;;;;;;;;;;;26.00;99.90;;;;;;5137541;27;19920;-47
2023/07/15 12:32:40;;;;;;;;;;;26.20;99.90;;;;;;5137420;27;19919;-47
2023/07/15 12:35:07;;;;;;;;;;;26.40;99.90;;;;;;5137398;27;19919;-47
2023/07/15 12:37:32;;;;;;;;;;;26.60;99.90;;;;;;5137159;27;19984;-48
2023/07/15 12:39:58;;;;;;;;;;;26.70;99.90;;;;;;5137252;27;19980;-48
2023/07/15 12:42:23;;;;;;;;;;;26.80;99.90;;;;;;5137291;27;19945;-47
2023/07/15 12:44:49;;;;;;;;;;;26.80;99.90;;;;;;5137188;27;19973;-47
2023/07/15 12:47:15;;;;;;;;;;;26.70;99.90;;;;;;5119137;27;20018;-48
2023/07/15 12:49:40;;;;;;;;;;;26.60;99.90;;;;;;5137040;27;20363;-47
2023/07/15 12:52:06;;;;;;;;;;;26.50;99.90;;;;;;5136815;27;19920;-48
2023/07/15 12:54:32;;;;;;;;;;;26.40;99.90;;;;;;5137079;27;19919;-49
2023/07/15 12:56:57;;;;;;;;;;;26.30;99.90;;;;;;5137081;27;19923;-51
2023/07/15 12:59:23;;;;;;;;;;;26.30;99.90;;;;;;5136944;27;19927;-48
2023/07/15 13:01:48;;;;;;;;;;;26.40;99.90;;;;;;5136919;27;20470;-48
2023/07/15 13:04:14;;;;;;;;;;;26.60;99.90;;;;;;5136730;27;19919;-47
2023/07/15 13:06:40;;;;;;;;;;;26.70;99.90;;;;;;5136574;27;19920;-48
2023/07/15 13:09:05;;;;;;;;;;;26.90;99.90;;;;;;5136579;27;20382;-48
2023/07/15 13:11:31;;;;;;;;;;;27.00;99.90;;;;;;5136893;27;20041;-47
2023/07/15 13:13:56;;;;;;;;;;;27.20;99.90;;;;;;5118345;27;20346;-48
2023/07/15 13:16:22;;;;;;;;;;;27.30;99.90;;;;;;5136567;27;19919;-49
2023/07/15 13:18:47;;;;;;;;;;;27.40;99.90;;;;;;5136540;27;19976;-47
2023/07/15 13:21:13;;;;;;;;;;;27.40;99.20;;;;;;5136422;27;20001;-48
2023/07/15 13:23:38;;;;;;;;;;;27.30;99.90;;;;;;5119100;27;20373;-47
2023/07/15 13:26:04;;;;;;;;;;;27.20;98.80;;;;;;5136299;27;19942;-47
2023/07/15 13:28:29;;;;;;;;;;;27.20;99.90;;;;;;5136380;27;19972;-50
2023/07/15 13:30:55;;;;;;;;;;;27.20;99.90;;;;;;5136300;27;19919;-49
2023/07/15 13:33:21;;;;;;;;;;;27.30;99.90;;;;;;5136119;27;19964;-47
2023/07/15 13:35:47;;;;;;;;;;;27.30;99.90;;;;;;5136309;27;19920;-48
2023/07/15 13:38:12;;;;;;;;;;;27.40;99.90;;;;;;5136225;27;19926;-48
2023/07/15 13:40:38;;;;;;;;;;;27.50;99.90;;;;;;5136144;27;19923;-48
2023/07/15 13:43:04;;;;;;;;;;;27.60;99.70;;;;;;5101005;27;20014;-49